Scott AFB/Midamerica Airport
KBLV : now visible

Airfield :











YOU CAN JOIN US ON...

 
LOGIN :

Register | Disclaimer

   EN    FR    IT 

 









Legend :    VFR   Marginal VFR   IFR   Intensive IFR   Very Intensive IFR
Visi :
Ceiling :
>= 8 km
>= 3000ft
5 to 8 km
1000 to 3000 ft
1500m to 5 km
500 to 1000 ft
800 to 1500m
200 to 500 ft
< 800m
< 200 ft
Symbols :   Thunderstorms  Fog  Heavy snow  Heavy precipitations  Wind > 20 kt






- Airport Elevation : 459 ft


KBLV - Scott AFB/Midamerica

CURRENT METAR :
  • 031956Z AUTO 11007KT 10SM SCT037 30/22 A3005 RMK AO2 SLP175 T03010217 $

EXPIRED METARs :
  • 031856Z 11007KT 10SM FEW034 30/22 A3007 RMK AO2A SLP182 T02990218 $
  • 030426Z AUTO 32006KT 10SM -RA FEW065 OVC080 23/22 A3005 RMK AO2 RAE0358DZB0358E01RAB01E02RAB26 SLP176 VISNO RWY14R CHINO RWY14R $
  • 031756Z 11006KT 10SM FEW030 FEW080 29/22 A3008 RMK AO2A SLP185 60000 T02880220 10288 20216 58002 $

TAF TAF KBLV
Valid from the 03 at 16:00 until the 04 at 22:00 UTC


031600Z 0316/0422 11006KT 9999 SCT080 QNH3004INS
BECMG 0320/0321 11006KT 9999 SCT030 BKN060 QNH3001INS
BECMG 0417/0418 17009KT 9999 VCSH FEW030 SCT045 BKN050 QNH2997INS TX31/0320Z TN21/0412Z
KZKC FIR / North America



MET'MAP, your aeronautical weather chart ! - Copyright ORBIFLY December 2007 - Disclaimer

ORBIFLY MET'MAP TEAM :

Programming & Development : Alexandra Zaïnal
Original concept : Baudouin d'Aumeries
Technical & hardware support : Manuel Goepfert
Assistance : Marc-Olivier Méhu




SOURCES & CREDITS :

   NOAA       Earth
Advisory